sensor_id;sensor_type;location;lat;lon;timestamp;temperature;humidity
44477;DHT22;30180;44.788;10.366;2023-02-08T00:01:14;17.00;55.40
44477;DHT22;30180;44.788;10.366;2023-02-08T00:03:43;17.00;55.30
44477;DHT22;30180;44.788;10.366;2023-02-08T00:06:12;17.00;55.40
44477;DHT22;30180;44.788;10.366;2023-02-08T00:08:40;17.00;55.40
44477;DHT22;30180;44.788;10.366;2023-02-08T00:11:09;17.00;55.40
44477;DHT22;30180;44.788;10.366;2023-02-08T00:13:39;17.00;55.40
44477;DHT22;30180;44.788;10.366;2023-02-08T00:16:08;17.00;55.40
44477;DHT22;30180;44.788;10.366;2023-02-08T00:18:39;17.00;55.40
44477;DHT22;30180;44.788;10.366;2023-02-08T00:21:12;17.00;55.40
44477;DHT22;30180;44.788;10.366;2023-02-08T00:23:40;17.00;55.30
44477;DHT22;30180;44.788;10.366;2023-02-08T00:26:09;17.00;55.40
44477;DHT22;30180;44.788;10.366;2023-02-08T00:28:37;17.00;55.40
44477;DHT22;30180;44.788;10.366;2023-02-08T00:31:06;16.90;55.30
44477;DHT22;30180;44.788;10.366;2023-02-08T00:33:34;17.00;55.40
44477;DHT22;30180;44.788;10.366;2023-02-08T00:36:05;16.90;55.40
44477;DHT22;30180;44.788;10.366;2023-02-08T00:38:34;16.90;55.40
44477;DHT22;30180;44.788;10.366;2023-02-08T00:41:03;16.90;55.40
44477;DHT22;30180;44.788;10.366;2023-02-08T00:43:31;16.90;55.40
44477;DHT22;30180;44.788;10.366;2023-02-08T00:46:00;16.90;55.40
44477;DHT22;30180;44.788;10.366;2023-02-08T00:48:28;16.90;55.40
44477;DHT22;30180;44.788;10.366;2023-02-08T00:50:59;16.90;55.40
44477;DHT22;30180;44.788;10.366;2023-02-08T00:53:29;16.90;55.40
44477;DHT22;30180;44.788;10.366;2023-02-08T00:55:57;16.90;55.40
44477;DHT22;30180;44.788;10.366;2023-02-08T00:58:25;16.90;55.40
44477;DHT22;30180;44.788;10.366;2023-02-08T01:00:53;16.90;55.40
44477;DHT22;30180;44.788;10.366;2023-02-08T01:03:22;16.90;55.40
44477;DHT22;30180;44.788;10.366;2023-02-08T01:05:51;16.90;55.40
44477;DHT22;30180;44.788;10.366;2023-02-08T01:08:20;16.90;55.40
44477;DHT22;30180;44.788;10.366;2023-02-08T01:10:50;16.80;55.30
44477;DHT22;30180;44.788;10.366;2023-02-08T01:13:18;16.80;55.30
44477;DHT22;30180;44.788;10.366;2023-02-08T01:15:47;16.80;55.30
44477;DHT22;30180;44.788;10.366;2023-02-08T01:18:15;16.80;55.40
44477;DHT22;30180;44.788;10.366;2023-02-08T01:20:43;16.80;55.40
44477;DHT22;30180;44.788;10.366;2023-02-08T01:23:11;16.80;55.40
44477;DHT22;30180;44.788;10.366;2023-02-08T01:25:39;16.80;55.40
44477;DHT22;30180;44.788;10.366;2023-02-08T01:28:09;16.80;55.30
44477;DHT22;30180;44.788;10.366;2023-02-08T01:30:37;16.80;55.40
44477;DHT22;30180;44.788;10.366;2023-02-08T01:33:06;16.80;55.40
44477;DHT22;30180;44.788;10.366;2023-02-08T01:35:34;16.80;55.40
44477;DHT22;30180;44.788;10.366;2023-02-08T01:38:02;16.80;55.40
44477;DHT22;30180;44.788;10.366;2023-02-08T01:40:30;16.80;55.40
44477;DHT22;30180;44.788;10.366;2023-02-08T01:42:59;16.80;55.40
44477;DHT22;30180;44.788;10.366;2023-02-08T01:45:30;16.80;55.40
44477;DHT22;30180;44.788;10.366;2023-02-08T01:48:03;16.80;55.40
44477;DHT22;30180;44.788;10.366;2023-02-08T01:50:39;16.70;55.40
44477;DHT22;30180;44.788;10.366;2023-02-08T01:53:09;16.70;55.30
44477;DHT22;30180;44.788;10.366;2023-02-08T01:55:41;16.70;55.30
44477;DHT22;30180;44.788;10.366;2023-02-08T01:58:11;16.70;55.30
44477;DHT22;30180;44.788;10.366;2023-02-08T02:00:41;16.70;55.30
44477;DHT22;30180;44.788;10.366;2023-02-08T02:03:09;16.70;55.30
44477;DHT22;30180;44.788;10.366;2023-02-08T02:05:41;16.70;55.30
44477;DHT22;30180;44.788;10.366;2023-02-08T02:08:10;16.70;55.30
44477;DHT22;30180;44.788;10.366;2023-02-08T02:10:40;16.70;55.30
44477;DHT22;30180;44.788;10.366;2023-02-08T02:13:11;16.70;55.30
44477;DHT22;30180;44.788;10.366;2023-02-08T02:15:41;16.70;55.30
44477;DHT22;30180;44.788;10.366;2023-02-08T02:18:11;16.70;55.30
44477;DHT22;30180;44.788;10.366;2023-02-08T02:20:58;16.70;55.30
44477;DHT22;30180;44.788;10.366;2023-02-08T02:30:13;16.70;55.30
44477;DHT22;30180;44.788;10.366;2023-02-08T02:35:46;16.60;55.20
44477;DHT22;30180;44.788;10.366;2023-02-08T02:38:24;16.60;55.20
44477;DHT22;30180;44.788;10.366;2023-02-08T02:41:04;16.60;55.20
44477;DHT22;30180;44.788;10.366;2023-02-08T02:43:41;16.60;55.20
44477;DHT22;30180;44.788;10.366;2023-02-08T02:46:21;16.60;55.20
44477;DHT22;30180;44.788;10.366;2023-02-08T02:48:58;16.60;55.30
44477;DHT22;30180;44.788;10.366;2023-02-08T02:51:38;16.60;55.30
44477;DHT22;30180;44.788;10.366;2023-02-08T02:54:12;16.60;55.30
44477;DHT22;30180;44.788;10.366;2023-02-08T02:56:44;16.60;55.30
44477;DHT22;30180;44.788;10.366;2023-02-08T02:59:14;16.60;55.30
44477;DHT22;30180;44.788;10.366;2023-02-08T03:01:43;16.60;55.30
44477;DHT22;30180;44.788;10.366;2023-02-08T03:04:14;16.60;55.20
44477;DHT22;30180;44.788;10.366;2023-02-08T03:06:56;16.50;55.20
44477;DHT22;30180;44.788;10.366;2023-02-08T03:09:34;16.50;55.20
44477;DHT22;30180;44.788;10.366;2023-02-08T03:12:16;16.50;55.20
44477;DHT22;30180;44.788;10.366;2023-02-08T03:14:55;16.50;55.20
44477;DHT22;30180;44.788;10.366;2023-02-08T03:17:34;16.50;55.20
44477;DHT22;30180;44.788;10.366;2023-02-08T03:20:10;16.50;55.20
44477;DHT22;30180;44.788;10.366;2023-02-08T03:22:45;16.50;55.20
44477;DHT22;30180;44.788;10.366;2023-02-08T03:25:20;16.50;55.20
44477;DHT22;30180;44.788;10.366;2023-02-08T03:27:54;16.50;55.20
44477;DHT22;30180;44.788;10.366;2023-02-08T03:30:29;16.50;55.20
44477;DHT22;30180;44.788;10.366;2023-02-08T03:33:00;16.50;55.20
44477;DHT22;30180;44.788;10.366;2023-02-08T03:35:33;16.50;55.20
44477;DHT22;30180;44.788;10.366;2023-02-08T03:38:06;16.40;55.10
44477;DHT22;30180;44.788;10.366;2023-02-08T03:40:38;16.50;55.20
44477;DHT22;30180;44.788;10.366;2023-02-08T03:43:11;16.50;55.20
44477;DHT22;30180;44.788;10.366;2023-02-08T03:45:46;16.40;55.20
44477;DHT22;30180;44.788;10.366;2023-02-08T03:48:17;16.50;55.20
44477;DHT22;30180;44.788;10.366;2023-02-08T03:50:50;16.40;55.20
44477;DHT22;30180;44.788;10.366;2023-02-08T03:53:21;16.40;55.20
44477;DHT22;30180;44.788;10.366;2023-02-08T03:55:54;16.40;55.10
44477;DHT22;30180;44.788;10.366;2023-02-08T03:58:27;16.40;55.10
44477;DHT22;30180;44.788;10.366;2023-02-08T04:01:01;16.40;55.20
44477;DHT22;30180;44.788;10.366;2023-02-08T04:03:32;16.40;55.20
44477;DHT22;30180;44.788;10.366;2023-02-08T04:06:03;16.40;55.20
44477;DHT22;30180;44.788;10.366;2023-02-08T04:08:31;16.40;55.20
44477;DHT22;30180;44.788;10.366;2023-02-08T04:10:59;16.40;55.20
44477;DHT22;30180;44.788;10.366;2023-02-08T04:13:28;16.40;55.20
44477;DHT22;30180;44.788;10.366;2023-02-08T04:15:56;16.40;55.20
44477;DHT22;30180;44.788;10.366;2023-02-08T04:18:24;16.40;55.30
44477;DHT22;30180;44.788;10.366;2023-02-08T04:20:52;16.40;55.30
44477;DHT22;30180;44.788;10.366;2023-02-08T04:23:22;16.40;55.30
44477;DHT22;30180;44.788;10.366;2023-02-08T04:25:50;16.40;55.30
44477;DHT22;30180;44.788;10.366;2023-02-08T04:28:18;16.40;55.30
44477;DHT22;30180;44.788;10.366;2023-02-08T04:30:46;16.40;55.30
44477;DHT22;30180;44.788;10.366;2023-02-08T04:33:15;16.40;55.30
44477;DHT22;30180;44.788;10.366;2023-02-08T04:35:43;16.40;55.40
44477;DHT22;30180;44.788;10.366;2023-02-08T04:38:11;16.40;55.40
44477;DHT22;30180;44.788;10.366;2023-02-08T04:40:40;16.40;55.40
44477;DHT22;30180;44.788;10.366;2023-02-08T04:43:09;16.40;55.40
44477;DHT22;30180;44.788;10.366;2023-02-08T04:45:37;16.50;55.40
44477;DHT22;30180;44.788;10.366;2023-02-08T04:48:05;16.40;55.40
44477;DHT22;30180;44.788;10.366;2023-02-08T04:50:34;16.50;55.50
44477;DHT22;30180;44.788;10.366;2023-02-08T04:53:02;16.50;55.50
44477;DHT22;30180;44.788;10.366;2023-02-08T04:55:32;16.50;55.50
44477;DHT22;30180;44.788;10.366;2023-02-08T04:58:02;16.50;55.50
44477;DHT22;30180;44.788;10.366;2023-02-08T05:00:30;16.50;55.50
44477;DHT22;30180;44.788;10.366;2023-02-08T05:02:58;16.60;55.60
44477;DHT22;30180;44.788;10.366;2023-02-08T05:05:27;16.50;55.50
44477;DHT22;30180;44.788;10.366;2023-02-08T05:07:55;16.60;55.60
44477;DHT22;30180;44.788;10.366;2023-02-08T05:10:24;16.50;55.50
44477;DHT22;30180;44.788;10.366;2023-02-08T05:12:52;16.60;55.60
44477;DHT22;30180;44.788;10.366;2023-02-08T05:15:23;16.60;55.60
44477;DHT22;30180;44.788;10.366;2023-02-08T05:17:51;16.60;55.60
44477;DHT22;30180;44.788;10.366;2023-02-08T05:20:19;16.60;55.60
44477;DHT22;30180;44.788;10.366;2023-02-08T05:22:48;16.70;55.70
44477;DHT22;30180;44.788;10.366;2023-02-08T05:25:16;16.70;55.70
44477;DHT22;30180;44.788;10.366;2023-02-08T05:27:44;16.70;55.70
44477;DHT22;30180;44.788;10.366;2023-02-08T05:30:13;16.70;55.70
44477;DHT22;30180;44.788;10.366;2023-02-08T05:32:42;16.70;55.60
44477;DHT22;30180;44.788;10.366;2023-02-08T05:35:11;16.70;55.60
44477;DHT22;30180;44.788;10.366;2023-02-08T05:37:39;16.70;55.60
44477;DHT22;30180;44.788;10.366;2023-02-08T05:40:08;16.70;55.60
44477;DHT22;30180;44.788;10.366;2023-02-08T05:42:38;16.70;55.60
44477;DHT22;30180;44.788;10.366;2023-02-08T05:45:08;16.70;55.60
44477;DHT22;30180;44.788;10.366;2023-02-08T05:47:37;16.70;55.60
44477;DHT22;30180;44.788;10.366;2023-02-08T05:50:07;16.70;55.60
44477;DHT22;30180;44.788;10.366;2023-02-08T05:52:35;16.70;55.60
44477;DHT22;30180;44.788;10.366;2023-02-08T05:55:04;16.80;55.60
44477;DHT22;30180;44.788;10.366;2023-02-08T05:57:32;16.70;55.60
44477;DHT22;30180;44.788;10.366;2023-02-08T06:00:02;16.70;55.50
44477;DHT22;30180;44.788;10.366;2023-02-08T06:02:31;16.70;55.50
44477;DHT22;30180;44.788;10.366;2023-02-08T06:04:59;16.70;55.50
44477;DHT22;30180;44.788;10.366;2023-02-08T06:07:29;16.80;55.60
44477;DHT22;30180;44.788;10.366;2023-02-08T06:09:57;16.70;55.50
44477;DHT22;30180;44.788;10.366;2023-02-08T06:12:25;16.70;55.50
44477;DHT22;30180;44.788;10.366;2023-02-08T06:14:54;16.70;55.50
44477;DHT22;30180;44.788;10.366;2023-02-08T06:17:22;16.70;55.50
44477;DHT22;30180;44.788;10.366;2023-02-08T06:19:50;16.70;55.50
44477;DHT22;30180;44.788;10.366;2023-02-08T06:22:18;16.70;55.50
44477;DHT22;30180;44.788;10.366;2023-02-08T06:24:48;16.70;55.50
44477;DHT22;30180;44.788;10.366;2023-02-08T06:27:16;16.70;55.50
44477;DHT22;30180;44.788;10.366;2023-02-08T06:29:44;16.70;55.50
44477;DHT22;30180;44.788;10.366;2023-02-08T06:32:12;16.70;55.50
44477;DHT22;30180;44.788;10.366;2023-02-08T06:34:40;16.70;55.50
44477;DHT22;30180;44.788;10.366;2023-02-08T06:37:09;16.70;55.50
44477;DHT22;30180;44.788;10.366;2023-02-08T06:39:37;16.70;55.50
44477;DHT22;30180;44.788;10.366;2023-02-08T06:42:06;16.70;55.50
44477;DHT22;30180;44.788;10.366;2023-02-08T06:44:35;16.70;55.50
44477;DHT22;30180;44.788;10.366;2023-02-08T06:47:09;16.80;55.50
44477;DHT22;30180;44.788;10.366;2023-02-08T06:49:37;16.70;55.40
44477;DHT22;30180;44.788;10.366;2023-02-08T06:52:05;16.80;55.60
44477;DHT22;30180;44.788;10.366;2023-02-08T06:54:34;16.70;55.50
44477;DHT22;30180;44.788;10.366;2023-02-08T06:57:02;16.70;55.50
44477;DHT22;30180;44.788;10.366;2023-02-08T06:59:31;16.80;55.50
44477;DHT22;30180;44.788;10.366;2023-02-08T07:01:59;16.70;55.40
44477;DHT22;30180;44.788;10.366;2023-02-08T07:04:28;16.70;55.40
44477;DHT22;30180;44.788;10.366;2023-02-08T07:06:56;16.80;55.50
44477;DHT22;30180;44.788;10.366;2023-02-08T07:09:24;16.80;55.50
44477;DHT22;30180;44.788;10.366;2023-02-08T07:11:52;16.70;55.40
44477;DHT22;30180;44.788;10.366;2023-02-08T07:14:20;16.70;55.40
44477;DHT22;30180;44.788;10.366;2023-02-08T07:16:50;16.70;55.40
44477;DHT22;30180;44.788;10.366;2023-02-08T07:19:21;16.80;55.40
44477;DHT22;30180;44.788;10.366;2023-02-08T07:21:49;16.70;55.40
44477;DHT22;30180;44.788;10.366;2023-02-08T07:24:18;16.70;55.40
44477;DHT22;30180;44.788;10.366;2023-02-08T07:26:46;16.70;55.50
44477;DHT22;30180;44.788;10.366;2023-02-08T07:29:14;16.70;55.50
44477;DHT22;30180;44.788;10.366;2023-02-08T07:31:42;16.70;55.40
44477;DHT22;30180;44.788;10.366;2023-02-08T07:34:12;16.80;55.50
44477;DHT22;30180;44.788;10.366;2023-02-08T07:36:42;16.80;55.60
44477;DHT22;30180;44.788;10.366;2023-02-08T07:39:10;16.70;55.50
44477;DHT22;30180;44.788;10.366;2023-02-08T07:41:38;16.70;55.50
44477;DHT22;30180;44.788;10.366;2023-02-08T07:44:07;16.70;55.50
44477;DHT22;30180;44.788;10.366;2023-02-08T07:46:35;16.70;55.50
44477;DHT22;30180;44.788;10.366;2023-02-08T07:49:03;16.70;55.50
44477;DHT22;30180;44.788;10.366;2023-02-08T07:51:32;16.70;55.50
44477;DHT22;30180;44.788;10.366;2023-02-08T07:54:01;16.70;55.50
44477;DHT22;30180;44.788;10.366;2023-02-08T07:56:29;16.70;55.50
44477;DHT22;30180;44.788;10.366;2023-02-08T07:58:58;16.70;55.50
44477;DHT22;30180;44.788;10.366;2023-02-08T08:01:26;16.80;55.50
44477;DHT22;30180;44.788;10.366;2023-02-08T08:03:54;16.70;55.50
44477;DHT22;30180;44.788;10.366;2023-02-08T08:06:23;16.70;55.50
44477;DHT22;30180;44.788;10.366;2023-02-08T08:08:52;16.70;55.40
44477;DHT22;30180;44.788;10.366;2023-02-08T08:11:21;16.70;55.40
44477;DHT22;30180;44.788;10.366;2023-02-08T08:13:50;16.70;55.40
44477;DHT22;30180;44.788;10.366;2023-02-08T08:16:18;16.70;55.40
44477;DHT22;30180;44.788;10.366;2023-02-08T08:18:47;16.70;55.40
44477;DHT22;30180;44.788;10.366;2023-02-08T08:21:16;16.60;55.40
44477;DHT22;30180;44.788;10.366;2023-02-08T08:23:44;16.60;55.50
44477;DHT22;30180;44.788;10.366;2023-02-08T08:26:16;16.70;55.50
44477;DHT22;30180;44.788;10.366;2023-02-08T08:28:44;16.70;55.50
44477;DHT22;30180;44.788;10.366;2023-02-08T08:31:14;16.60;55.40
44477;DHT22;30180;44.788;10.366;2023-02-08T08:33:43;16.60;55.50
44477;DHT22;30180;44.788;10.366;2023-02-08T08:36:12;16.60;55.40
44477;DHT22;30180;44.788;10.366;2023-02-08T08:38:40;16.60;55.50
44477;DHT22;30180;44.788;10.366;2023-02-08T08:41:09;16.60;55.50
44477;DHT22;30180;44.788;10.366;2023-02-08T08:43:39;16.60;55.50
44477;DHT22;30180;44.788;10.366;2023-02-08T08:46:07;16.60;55.50
44477;DHT22;30180;44.788;10.366;2023-02-08T08:48:36;16.60;55.50
44477;DHT22;30180;44.788;10.366;2023-02-08T08:51:05;16.60;55.50
44477;DHT22;30180;44.788;10.366;2023-02-08T08:53:34;16.60;55.50
44477;DHT22;30180;44.788;10.366;2023-02-08T08:56:04;16.60;55.50
44477;DHT22;30180;44.788;10.366;2023-02-08T08:58:33;16.60;55.50
44477;DHT22;30180;44.788;10.366;2023-02-08T09:01:02;16.60;55.50
44477;DHT22;30180;44.788;10.366;2023-02-08T09:03:31;16.60;55.50
44477;DHT22;30180;44.788;10.366;2023-02-08T09:05:59;16.60;55.60
44477;DHT22;30180;44.788;10.366;2023-02-08T09:08:27;16.50;55.40
44477;DHT22;30180;44.788;10.366;2023-02-08T09:10:55;16.50;55.40
44477;DHT22;30180;44.788;10.366;2023-02-08T09:13:24;16.50;55.60
44477;DHT22;30180;44.788;10.366;2023-02-08T09:15:52;16.50;55.70
44477;DHT22;30180;44.788;10.366;2023-02-08T09:18:21;16.60;55.90
44477;DHT22;30180;44.788;10.366;2023-02-08T09:20:50;16.60;56.00
44477;DHT22;30180;44.788;10.366;2023-02-08T09:23:18;16.70;56.10
44477;DHT22;30180;44.788;10.366;2023-02-08T09:25:46;16.70;56.10
44477;DHT22;30180;44.788;10.366;2023-02-08T09:28:16;16.80;56.20
44477;DHT22;30180;44.788;10.366;2023-02-08T09:30:44;16.90;56.20
44477;DHT22;30180;44.788;10.366;2023-02-08T09:33:12;17.00;56.30
44477;DHT22;30180;44.788;10.366;2023-02-08T09:35:42;17.00;56.30
44477;DHT22;30180;44.788;10.366;2023-02-08T09:38:10;17.10;56.30
44477;DHT22;30180;44.788;10.366;2023-02-08T09:40:44;17.10;56.40
44477;DHT22;30180;44.788;10.366;2023-02-08T09:43:19;17.20;56.50
44477;DHT22;30180;44.788;10.366;2023-02-08T09:45:54;17.20;56.40
44477;DHT22;30180;44.788;10.366;2023-02-08T09:48:29;17.30;56.50
44477;DHT22;30180;44.788;10.366;2023-02-08T09:51:03;17.40;56.60
44477;DHT22;30180;44.788;10.366;2023-02-08T09:53:36;17.40;56.60
44477;DHT22;30180;44.788;10.366;2023-02-08T09:56:10;17.50;56.70
44477;DHT22;30180;44.788;10.366;2023-02-08T09:58:42;17.50;56.60
44477;DHT22;30180;44.788;10.366;2023-02-08T10:01:15;17.60;56.70
44477;DHT22;30180;44.788;10.366;2023-02-08T10:03:46;17.60;56.80
44477;DHT22;30180;44.788;10.366;2023-02-08T10:06:18;17.70;56.80
44477;DHT22;30180;44.788;10.366;2023-02-08T10:08:50;17.70;56.80
44477;DHT22;30180;44.788;10.366;2023-02-08T10:11:40;17.70;56.80
44477;DHT22;30180;44.788;10.366;2023-02-08T10:14:32;17.80;56.80
44477;DHT22;30180;44.788;10.366;2023-02-08T10:17:09;17.90;56.80
44477;DHT22;30180;44.788;10.366;2023-02-08T10:19:55;17.90;56.90
44477;DHT22;30180;44.788;10.366;2023-02-08T10:22:37;18.00;56.90
44477;DHT22;30180;44.788;10.366;2023-02-08T10:25:26;18.00;56.90
44477;DHT22;30180;44.788;10.366;2023-02-08T10:28:13;18.10;57.00
44477;DHT22;30180;44.788;10.366;2023-02-08T10:30:45;18.10;57.60
44477;DHT22;30180;44.788;10.366;2023-02-08T10:33:19;18.20;57.00
44477;DHT22;30180;44.788;10.366;2023-02-08T10:35:49;18.20;57.00
44477;DHT22;30180;44.788;10.366;2023-02-08T10:38:26;18.30;57.10
44477;DHT22;30180;44.788;10.366;2023-02-08T10:41:16;18.30;57.10
44477;DHT22;30180;44.788;10.366;2023-02-08T10:43:50;18.40;57.10
44477;DHT22;30180;44.788;10.366;2023-02-08T10:46:23;18.40;57.10
44477;DHT22;30180;44.788;10.366;2023-02-08T10:49:02;18.40;57.10
44477;DHT22;30180;44.788;10.366;2023-02-08T10:51:34;18.50;57.10
44477;DHT22;30180;44.788;10.366;2023-02-08T10:54:04;18.50;57.10
44477;DHT22;30180;44.788;10.366;2023-02-08T10:56:50;18.60;57.20
44477;DHT22;30180;44.788;10.366;2023-02-08T10:59:22;18.60;57.10
44477;DHT22;30180;44.788;10.366;2023-02-08T11:01:52;18.60;57.00
44477;DHT22;30180;44.788;10.366;2023-02-08T11:04:21;18.70;57.10
44477;DHT22;30180;44.788;10.366;2023-02-08T11:06:50;18.70;57.00
44477;DHT22;30180;44.788;10.366;2023-02-08T11:09:24;18.70;56.90
44477;DHT22;30180;44.788;10.366;2023-02-08T11:11:56;18.70;56.90
44477;DHT22;30180;44.788;10.366;2023-02-08T11:14:26;18.80;56.90
44477;DHT22;30180;44.788;10.366;2023-02-08T11:17:25;18.80;56.90
44477;DHT22;30180;44.788;10.366;2023-02-08T11:19:53;18.80;56.80
44477;DHT22;30180;44.788;10.366;2023-02-08T11:22:23;18.80;56.80
44477;DHT22;30180;44.788;10.366;2023-02-08T11:24:58;18.80;56.70
44477;DHT22;30180;44.788;10.366;2023-02-08T11:27:32;18.90;56.80
44477;DHT22;30180;44.788;10.366;2023-02-08T11:30:21;18.90;56.80
44477;DHT22;30180;44.788;10.366;2023-02-08T11:33:12;18.90;56.80
44477;DHT22;30180;44.788;10.366;2023-02-08T11:35:41;18.90;56.80
44477;DHT22;30180;44.788;10.366;2023-02-08T11:38:17;19.00;56.90
44477;DHT22;30180;44.788;10.366;2023-02-08T11:40:55;19.00;56.90
44477;DHT22;30180;44.788;10.366;2023-02-08T11:43:26;19.00;56.80
44477;DHT22;30180;44.788;10.366;2023-02-08T11:45:56;19.10;56.90
44477;DHT22;30180;44.788;10.366;2023-02-08T11:48:36;19.00;56.80
44477;DHT22;30180;44.788;10.366;2023-02-08T11:51:07;19.10;56.80
44477;DHT22;30180;44.788;10.366;2023-02-08T11:53:38;19.10;56.80
44477;DHT22;30180;44.788;10.366;2023-02-08T11:56:15;19.10;56.80
44477;DHT22;30180;44.788;10.366;2023-02-08T11:58:59;19.20;56.80
44477;DHT22;30180;44.788;10.366;2023-02-08T12:01:30;19.20;56.70
44477;DHT22;30180;44.788;10.366;2023-02-08T12:04:02;19.20;56.70
44477;DHT22;30180;44.788;10.366;2023-02-08T12:07:00;19.20;56.70
44477;DHT22;30180;44.788;10.366;2023-02-08T12:09:45;19.20;56.70
44477;DHT22;30180;44.788;10.366;2023-02-08T12:12:24;19.20;56.70
44477;DHT22;30180;44.788;10.366;2023-02-08T12:15:04;19.30;56.70
44477;DHT22;30180;44.788;10.366;2023-02-08T12:17:51;19.30;56.40
44477;DHT22;30180;44.788;10.366;2023-02-08T12:20:39;19.20;56.00
44477;DHT22;30180;44.788;10.366;2023-02-08T12:23:36;19.20;56.00
44477;DHT22;30180;44.788;10.366;2023-02-08T12:26:16;19.10;55.90
44477;DHT22;30180;44.788;10.366;2023-02-08T12:28:55;19.00;55.80
44477;DHT22;30180;44.788;10.366;2023-02-08T12:31:33;19.00;55.80
44477;DHT22;30180;44.788;10.366;2023-02-08T12:34:11;18.90;55.80
44477;DHT22;30180;44.788;10.366;2023-02-08T12:36:59;18.90;55.80
44477;DHT22;30180;44.788;10.366;2023-02-08T12:39:55;18.90;55.80
44477;DHT22;30180;44.788;10.366;2023-02-08T12:42:53;18.80;55.80
44477;DHT22;30180;44.788;10.366;2023-02-08T12:45:42;18.80;55.90
44477;DHT22;30180;44.788;10.366;2023-02-08T12:48:27;18.80;55.80
44477;DHT22;30180;44.788;10.366;2023-02-08T12:51:02;18.80;55.80
44477;DHT22;30180;44.788;10.366;2023-02-08T12:53:37;18.80;55.80
44477;DHT22;30180;44.788;10.366;2023-02-08T12:56:13;18.80;55.80
44477;DHT22;30180;44.788;10.366;2023-02-08T12:58:44;18.80;55.80
44477;DHT22;30180;44.788;10.366;2023-02-08T13:01:17;18.80;55.80
44477;DHT22;30180;44.788;10.366;2023-02-08T13:03:50;18.80;55.80
44477;DHT22;30180;44.788;10.366;2023-02-08T13:06:21;18.80;55.80
44477;DHT22;30180;44.788;10.366;2023-02-08T13:08:54;18.80;55.80
44477;DHT22;30180;44.788;10.366;2023-02-08T13:11:32;18.70;56.30
44477;DHT22;30180;44.788;10.366;2023-02-08T13:14:05;18.80;55.80
44477;DHT22;30180;44.788;10.366;2023-02-08T13:16:40;18.80;56.00
44477;DHT22;30180;44.788;10.366;2023-02-08T13:19:24;18.70;55.70
44477;DHT22;30180;44.788;10.366;2023-02-08T13:21:54;18.70;55.70
44477;DHT22;30180;44.788;10.366;2023-02-08T13:24:29;18.70;56.00
44477;DHT22;30180;44.788;10.366;2023-02-08T13:26:58;18.80;56.10
44477;DHT22;30180;44.788;10.366;2023-02-08T13:29:27;18.80;56.20
44477;DHT22;30180;44.788;10.366;2023-02-08T13:32:01;18.90;56.20
44477;DHT22;30180;44.788;10.366;2023-02-08T13:34:35;18.90;56.20
44477;DHT22;30180;44.788;10.366;2023-02-08T13:37:16;18.90;56.20
44477;DHT22;30180;44.788;10.366;2023-02-08T13:39:59;19.00;56.20
44477;DHT22;30180;44.788;10.366;2023-02-08T13:42:31;19.00;56.20
44477;DHT22;30180;44.788;10.366;2023-02-08T13:45:02;19.10;56.20
44477;DHT22;30180;44.788;10.366;2023-02-08T13:47:37;19.10;56.20
44477;DHT22;30180;44.788;10.366;2023-02-08T13:50:37;19.10;56.10
44477;DHT22;30180;44.788;10.366;2023-02-08T13:53:06;19.10;56.10
44477;DHT22;30180;44.788;10.366;2023-02-08T13:55:59;19.10;56.10
44477;DHT22;30180;44.788;10.366;2023-02-08T13:58:57;19.20;56.10
44477;DHT22;30180;44.788;10.366;2023-02-08T14:01:28;19.20;56.10
44477;DHT22;30180;44.788;10.366;2023-02-08T14:04:35;19.20;55.90
44477;DHT22;30180;44.788;10.366;2023-02-08T14:07:24;19.10;55.50
44477;DHT22;30180;44.788;10.366;2023-02-08T14:10:16;19.10;55.30
44477;DHT22;30180;44.788;10.366;2023-02-08T14:12:53;19.00;55.20
44477;DHT22;30180;44.788;10.366;2023-02-08T14:15:30;19.00;55.20
44477;DHT22;30180;44.788;10.366;2023-02-08T14:17:59;18.90;55.30
44477;DHT22;30180;44.788;10.366;2023-02-08T14:20:33;18.90;55.30
44477;DHT22;30180;44.788;10.366;2023-02-08T14:23:04;18.90;55.30
44477;DHT22;30180;44.788;10.366;2023-02-08T14:25:42;18.90;55.30
44477;DHT22;30180;44.788;10.366;2023-02-08T14:28:24;18.90;55.40
44477;DHT22;30180;44.788;10.366;2023-02-08T14:30:55;18.80;55.30
44477;DHT22;30180;44.788;10.366;2023-02-08T14:33:26;18.80;55.30
44477;DHT22;30180;44.788;10.366;2023-02-08T14:35:58;18.80;55.30
44477;DHT22;30180;44.788;10.366;2023-02-08T14:39:04;18.80;55.30
44477;DHT22;30180;44.788;10.366;2023-02-08T14:42:00;18.80;55.20
44477;DHT22;30180;44.788;10.366;2023-02-08T14:45:02;18.80;55.20
44477;DHT22;30180;44.788;10.366;2023-02-08T14:47:57;18.80;55.10
44477;DHT22;30180;44.788;10.366;2023-02-08T14:50:31;18.70;55.00
44477;DHT22;30180;44.788;10.366;2023-02-08T14:53:05;18.70;55.10
44477;DHT22;30180;44.788;10.366;2023-02-08T14:55:39;18.70;55.30
44477;DHT22;30180;44.788;10.366;2023-02-08T14:58:11;18.80;55.40
44477;DHT22;30180;44.788;10.366;2023-02-08T15:00:42;18.80;55.40
44477;DHT22;30180;44.788;10.366;2023-02-08T15:03:13;18.80;55.40
44477;DHT22;30180;44.788;10.366;2023-02-08T15:05:48;18.80;55.40
44477;DHT22;30180;44.788;10.366;2023-02-08T15:08:26;18.80;55.30
44477;DHT22;30180;44.788;10.366;2023-02-08T15:10:54;18.80;55.20
44477;DHT22;30180;44.788;10.366;2023-02-08T15:13:23;18.80;55.10
44477;DHT22;30180;44.788;10.366;2023-02-08T15:15:54;18.80;54.90
44477;DHT22;30180;44.788;10.366;2023-02-08T15:18:23;18.80;54.80
44477;DHT22;30180;44.788;10.366;2023-02-08T15:21:00;18.70;54.70
44477;DHT22;30180;44.788;10.366;2023-02-08T15:23:31;18.70;54.70
44477;DHT22;30180;44.788;10.366;2023-02-08T15:26:00;18.60;54.70
44477;DHT22;30180;44.788;10.366;2023-02-08T15:28:30;18.60;54.70
44477;DHT22;30180;44.788;10.366;2023-02-08T15:31:01;18.60;54.70
44477;DHT22;30180;44.788;10.366;2023-02-08T15:33:31;18.50;54.70
44477;DHT22;30180;44.788;10.366;2023-02-08T15:36:02;18.60;54.80
44477;DHT22;30180;44.788;10.366;2023-02-08T15:38:35;18.50;54.70
44477;DHT22;30180;44.788;10.366;2023-02-08T15:41:08;18.50;54.70
44477;DHT22;30180;44.788;10.366;2023-02-08T15:43:39;18.50;54.70
44477;DHT22;30180;44.788;10.366;2023-02-08T15:46:16;18.60;54.70
44477;DHT22;30180;44.788;10.366;2023-02-08T15:48:45;18.50;54.60
44477;DHT22;30180;44.788;10.366;2023-02-08T15:51:16;18.50;54.60
44477;DHT22;30180;44.788;10.366;2023-02-08T15:53:49;18.50;54.60
44477;DHT22;30180;44.788;10.366;2023-02-08T15:56:22;18.50;54.60
44477;DHT22;30180;44.788;10.366;2023-02-08T15:59:05;18.50;54.50